sensor_id;sensor_type;location;lat;lon;timestamp;P1;durP1;ratioP1;P2;durP2;ratioP2
19854;SDS011;10088;47.946;2.532;2023-07-13T00:01:18;3.53;;;2.30;;
19854;SDS011;10088;47.946;2.532;2023-07-13T00:03:43;4.67;;;1.83;;
19854;SDS011;10088;47.946;2.532;2023-07-13T00:06:08;4.57;;;2.00;;
19854;SDS011;10088;47.946;2.532;2023-07-13T00:08:34;4.97;;;1.67;;
19854;SDS011;10088;47.946;2.532;2023-07-13T00:11:00;2.83;;;1.80;;
19854;SDS011;10088;47.946;2.532;2023-07-13T00:13:26;3.20;;;1.80;;
19854;SDS011;10088;47.946;2.532;2023-07-13T00:15:51;3.57;;;2.03;;
19854;SDS011;10088;47.946;2.532;2023-07-13T00:18:18;5.47;;;2.63;;
19854;SDS011;10088;47.946;2.532;2023-07-13T00:20:44;6.27;;;2.20;;
19854;SDS011;10088;47.946;2.532;2023-07-13T00:23:09;5.93;;;1.67;;
19854;SDS011;10088;47.946;2.532;2023-07-13T00:25:34;4.87;;;2.03;;
19854;SDS011;10088;47.946;2.532;2023-07-13T00:28:00;3.40;;;2.03;;
19854;SDS011;10088;47.946;2.532;2023-07-13T00:30:25;3.63;;;1.80;;
19854;SDS011;10088;47.946;2.532;2023-07-13T00:32:50;3.90;;;2.00;;
19854;SDS011;10088;47.946;2.532;2023-07-13T00:35:16;3.60;;;2.00;;
19854;SDS011;10088;47.946;2.532;2023-07-13T00:37:41;4.17;;;1.90;;
19854;SDS011;10088;47.946;2.532;2023-07-13T00:40:07;3.77;;;2.20;;
19854;SDS011;10088;47.946;2.532;2023-07-13T00:42:32;3.00;;;2.07;;
19854;SDS011;10088;47.946;2.532;2023-07-13T00:47:39;5.67;;;2.30;;
19854;SDS011;10088;47.946;2.532;2023-07-13T00:50:05;5.03;;;2.30;;
19854;SDS011;10088;47.946;2.532;2023-07-13T00:52:31;3.90;;;2.10;;
19854;SDS011;10088;47.946;2.532;2023-07-13T00:54:57;4.13;;;2.20;;
19854;SDS011;10088;47.946;2.532;2023-07-13T00:57:22;4.07;;;2.03;;
19854;SDS011;10088;47.946;2.532;2023-07-13T00:59:50;5.83;;;2.40;;
19854;SDS011;10088;47.946;2.532;2023-07-13T01:02:16;7.03;;;2.53;;
19854;SDS011;10088;47.946;2.532;2023-07-13T01:04:42;3.73;;;2.00;;
19854;SDS011;10088;47.946;2.532;2023-07-13T01:07:09;3.43;;;2.20;;
19854;SDS011;10088;47.946;2.532;2023-07-13T01:09:34;4.53;;;2.10;;
19854;SDS011;10088;47.946;2.532;2023-07-13T01:12:00;3.57;;;1.83;;
19854;SDS011;10088;47.946;2.532;2023-07-13T01:14:25;3.23;;;1.93;;
19854;SDS011;10088;47.946;2.532;2023-07-13T01:16:50;2.63;;;1.50;;
19854;SDS011;10088;47.946;2.532;2023-07-13T01:19:20;2.07;;;1.73;;
19854;SDS011;10088;47.946;2.532;2023-07-13T01:21:50;3.70;;;1.57;;
19854;SDS011;10088;47.946;2.532;2023-07-13T01:24:15;4.77;;;2.00;;
19854;SDS011;10088;47.946;2.532;2023-07-13T01:26:41;7.23;;;2.03;;
19854;SDS011;10088;47.946;2.532;2023-07-13T01:29:06;4.10;;;2.00;;
19854;SDS011;10088;47.946;2.532;2023-07-13T01:31:32;5.53;;;1.87;;
19854;SDS011;10088;47.946;2.532;2023-07-13T01:33:58;4.13;;;1.83;;
19854;SDS011;10088;47.946;2.532;2023-07-13T01:36:23;2.63;;;2.17;;
19854;SDS011;10088;47.946;2.532;2023-07-13T01:38:48;3.27;;;1.90;;
19854;SDS011;10088;47.946;2.532;2023-07-13T01:41:14;3.27;;;2.10;;
19854;SDS011;10088;47.946;2.532;2023-07-13T01:43:39;2.53;;;2.20;;
19854;SDS011;10088;47.946;2.532;2023-07-13T01:46:04;2.33;;;2.13;;
19854;SDS011;10088;47.946;2.532;2023-07-13T01:48:30;4.23;;;2.20;;
19854;SDS011;10088;47.946;2.532;2023-07-13T01:50:55;6.17;;;2.50;;
19854;SDS011;10088;47.946;2.532;2023-07-13T01:53:20;3.07;;;2.30;;
19854;SDS011;10088;47.946;2.532;2023-07-13T01:55:45;8.90;;;2.13;;
19854;SDS011;10088;47.946;2.532;2023-07-13T01:58:11;4.17;;;1.93;;
19854;SDS011;10088;47.946;2.532;2023-07-13T02:00:36;3.77;;;2.33;;
19854;SDS011;10088;47.946;2.532;2023-07-13T02:03:01;9.27;;;2.60;;
19854;SDS011;10088;47.946;2.532;2023-07-13T02:05:26;3.87;;;2.20;;
19854;SDS011;10088;47.946;2.532;2023-07-13T02:07:52;3.07;;;2.20;;
19854;SDS011;10088;47.946;2.532;2023-07-13T02:10:17;2.30;;;1.77;;
19854;SDS011;10088;47.946;2.532;2023-07-13T02:12:43;4.93;;;2.10;;
19854;SDS011;10088;47.946;2.532;2023-07-13T02:15:09;3.90;;;2.40;;
19854;SDS011;10088;47.946;2.532;2023-07-13T02:17:35;4.67;;;2.40;;
19854;SDS011;10088;47.946;2.532;2023-07-13T02:20:01;4.37;;;2.43;;
19854;SDS011;10088;47.946;2.532;2023-07-13T02:22:26;4.07;;;2.47;;
19854;SDS011;10088;47.946;2.532;2023-07-13T02:24:51;4.30;;;2.40;;
19854;SDS011;10088;47.946;2.532;2023-07-13T02:27:16;7.33;;;2.50;;
19854;SDS011;10088;47.946;2.532;2023-07-13T02:29:42;4.00;;;2.10;;
19854;SDS011;10088;47.946;2.532;2023-07-13T02:32:08;3.53;;;2.20;;
19854;SDS011;10088;47.946;2.532;2023-07-13T02:34:34;8.27;;;2.30;;
19854;SDS011;10088;47.946;2.532;2023-07-13T02:36:59;4.13;;;2.70;;
19854;SDS011;10088;47.946;2.532;2023-07-13T02:39:24;5.90;;;2.30;;
19854;SDS011;10088;47.946;2.532;2023-07-13T02:41:49;4.13;;;2.30;;
19854;SDS011;10088;47.946;2.532;2023-07-13T02:44:15;5.60;;;2.27;;
19854;SDS011;10088;47.946;2.532;2023-07-13T02:46:40;3.90;;;2.20;;
19854;SDS011;10088;47.946;2.532;2023-07-13T02:49:06;3.03;;;2.50;;
19854;SDS011;10088;47.946;2.532;2023-07-13T02:51:31;4.73;;;2.23;;
19854;SDS011;10088;47.946;2.532;2023-07-13T02:53:59;2.40;;;2.17;;
19854;SDS011;10088;47.946;2.532;2023-07-13T02:56:25;7.23;;;2.43;;
19854;SDS011;10088;47.946;2.532;2023-07-13T02:58:51;5.53;;;2.97;;
19854;SDS011;10088;47.946;2.532;2023-07-13T03:01:16;3.53;;;2.27;;
19854;SDS011;10088;47.946;2.532;2023-07-13T03:03:46;7.40;;;2.50;;
19854;SDS011;10088;47.946;2.532;2023-07-13T03:06:11;7.30;;;2.50;;
19854;SDS011;10088;47.946;2.532;2023-07-13T03:08:37;5.07;;;2.00;;
19854;SDS011;10088;47.946;2.532;2023-07-13T03:11:03;3.23;;;2.20;;
19854;SDS011;10088;47.946;2.532;2023-07-13T03:13:30;3.90;;;2.30;;
19854;SDS011;10088;47.946;2.532;2023-07-13T03:15:55;5.13;;;2.57;;
19854;SDS011;10088;47.946;2.532;2023-07-13T03:18:20;3.73;;;2.63;;
19854;SDS011;10088;47.946;2.532;2023-07-13T03:20:45;7.90;;;2.73;;
19854;SDS011;10088;47.946;2.532;2023-07-13T03:23:11;2.43;;;2.23;;
19854;SDS011;10088;47.946;2.532;2023-07-13T03:25:36;4.47;;;2.20;;
19854;SDS011;10088;47.946;2.532;2023-07-13T03:28:01;3.20;;;2.40;;
19854;SDS011;10088;47.946;2.532;2023-07-13T03:30:27;6.00;;;2.33;;
19854;SDS011;10088;47.946;2.532;2023-07-13T03:32:52;5.87;;;2.67;;
19854;SDS011;10088;47.946;2.532;2023-07-13T03:35:17;3.00;;;2.70;;
19854;SDS011;10088;47.946;2.532;2023-07-13T03:37:42;3.73;;;2.50;;
19854;SDS011;10088;47.946;2.532;2023-07-13T03:40:08;5.73;;;2.40;;
19854;SDS011;10088;47.946;2.532;2023-07-13T03:42:34;3.20;;;2.33;;
19854;SDS011;10088;47.946;2.532;2023-07-13T03:44:59;3.57;;;2.23;;
19854;SDS011;10088;47.946;2.532;2023-07-13T03:47:24;6.47;;;2.70;;
19854;SDS011;10088;47.946;2.532;2023-07-13T03:49:49;7.40;;;3.20;;
19854;SDS011;10088;47.946;2.532;2023-07-13T03:52:15;7.13;;;2.80;;
19854;SDS011;10088;47.946;2.532;2023-07-13T03:54:40;4.00;;;2.70;;
19854;SDS011;10088;47.946;2.532;2023-07-13T03:57:05;5.43;;;2.63;;
19854;SDS011;10088;47.946;2.532;2023-07-13T03:59:31;6.23;;;2.60;;
19854;SDS011;10088;47.946;2.532;2023-07-13T04:01:56;3.13;;;2.77;;
19854;SDS011;10088;47.946;2.532;2023-07-13T04:04:22;2.90;;;2.23;;
19854;SDS011;10088;47.946;2.532;2023-07-13T04:06:47;3.63;;;2.50;;
19854;SDS011;10088;47.946;2.532;2023-07-13T04:09:12;6.73;;;2.63;;
19854;SDS011;10088;47.946;2.532;2023-07-13T04:11:37;6.20;;;2.77;;
19854;SDS011;10088;47.946;2.532;2023-07-13T04:14:03;2.97;;;2.20;;
19854;SDS011;10088;47.946;2.532;2023-07-13T04:16:28;3.93;;;2.40;;
19854;SDS011;10088;47.946;2.532;2023-07-13T04:18:53;4.17;;;2.40;;
19854;SDS011;10088;47.946;2.532;2023-07-13T04:21:20;6.00;;;2.33;;
19854;SDS011;10088;47.946;2.532;2023-07-13T04:23:45;5.27;;;2.37;;
19854;SDS011;10088;47.946;2.532;2023-07-13T04:26:10;4.57;;;2.60;;
19854;SDS011;10088;47.946;2.532;2023-07-13T04:28:36;3.17;;;2.33;;
19854;SDS011;10088;47.946;2.532;2023-07-13T04:31:01;5.10;;;2.30;;
19854;SDS011;10088;47.946;2.532;2023-07-13T04:33:27;3.30;;;2.20;;
19854;SDS011;10088;47.946;2.532;2023-07-13T04:35:53;5.87;;;2.83;;
19854;SDS011;10088;47.946;2.532;2023-07-13T04:38:25;3.73;;;2.37;;
19854;SDS011;10088;47.946;2.532;2023-07-13T04:40:51;3.33;;;2.10;;
19854;SDS011;10088;47.946;2.532;2023-07-13T04:43:17;6.60;;;2.30;;
19854;SDS011;10088;47.946;2.532;2023-07-13T04:45:42;4.10;;;2.20;;
19854;SDS011;10088;47.946;2.532;2023-07-13T04:48:08;3.43;;;2.10;;
19854;SDS011;10088;47.946;2.532;2023-07-13T04:50:35;2.93;;;2.20;;
19854;SDS011;10088;47.946;2.532;2023-07-13T04:53:01;3.50;;;2.30;;
19854;SDS011;10088;47.946;2.532;2023-07-13T04:55:26;8.73;;;2.10;;
19854;SDS011;10088;47.946;2.532;2023-07-13T04:57:54;2.83;;;2.10;;
19854;SDS011;10088;47.946;2.532;2023-07-13T05:00:20;6.37;;;2.33;;
19854;SDS011;10088;47.946;2.532;2023-07-13T05:02:45;8.60;;;2.43;;
19854;SDS011;10088;47.946;2.532;2023-07-13T05:05:11;5.93;;;2.73;;
19854;SDS011;10088;47.946;2.532;2023-07-13T05:07:36;3.37;;;2.30;;
19854;SDS011;10088;47.946;2.532;2023-07-13T05:10:01;4.60;;;2.27;;
19854;SDS011;10088;47.946;2.532;2023-07-13T05:12:28;5.50;;;2.40;;
19854;SDS011;10088;47.946;2.532;2023-07-13T05:14:54;4.77;;;2.43;;
19854;SDS011;10088;47.946;2.532;2023-07-13T05:17:19;2.90;;;1.97;;
19854;SDS011;10088;47.946;2.532;2023-07-13T05:19:45;4.70;;;2.10;;
19854;SDS011;10088;47.946;2.532;2023-07-13T05:22:10;4.10;;;1.90;;
19854;SDS011;10088;47.946;2.532;2023-07-13T05:24:35;5.17;;;3.10;;
19854;SDS011;10088;47.946;2.532;2023-07-13T05:27:01;6.20;;;2.13;;
19854;SDS011;10088;47.946;2.532;2023-07-13T05:29:26;4.83;;;1.97;;
19854;SDS011;10088;47.946;2.532;2023-07-13T05:31:51;2.90;;;2.00;;
19854;SDS011;10088;47.946;2.532;2023-07-13T05:34:17;6.03;;;2.37;;
19854;SDS011;10088;47.946;2.532;2023-07-13T05:36:42;7.43;;;2.67;;
19854;SDS011;10088;47.946;2.532;2023-07-13T05:39:07;5.77;;;2.33;;
19854;SDS011;10088;47.946;2.532;2023-07-13T05:41:33;5.37;;;1.87;;
19854;SDS011;10088;47.946;2.532;2023-07-13T05:43:58;6.23;;;2.27;;
19854;SDS011;10088;47.946;2.532;2023-07-13T05:46:24;5.90;;;2.20;;
19854;SDS011;10088;47.946;2.532;2023-07-13T05:48:49;9.10;;;2.00;;
19854;SDS011;10088;47.946;2.532;2023-07-13T05:51:14;6.00;;;1.93;;
19854;SDS011;10088;47.946;2.532;2023-07-13T05:53:40;11.13;;;1.90;;
19854;SDS011;10088;47.946;2.532;2023-07-13T05:56:05;4.03;;;2.10;;
19854;SDS011;10088;47.946;2.532;2023-07-13T05:58:30;7.10;;;1.97;;
19854;SDS011;10088;47.946;2.532;2023-07-13T06:00:59;5.77;;;1.40;;
19854;SDS011;10088;47.946;2.532;2023-07-13T06:03:25;5.43;;;2.03;;
19854;SDS011;10088;47.946;2.532;2023-07-13T06:05:50;5.63;;;2.00;;
19854;SDS011;10088;47.946;2.532;2023-07-13T06:08:16;7.17;;;1.40;;
19854;SDS011;10088;47.946;2.532;2023-07-13T06:10:41;5.27;;;1.60;;
19854;SDS011;10088;47.946;2.532;2023-07-13T06:13:06;3.87;;;1.87;;
19854;SDS011;10088;47.946;2.532;2023-07-13T06:15:32;5.53;;;1.63;;
19854;SDS011;10088;47.946;2.532;2023-07-13T06:17:57;7.47;;;1.90;;
19854;SDS011;10088;47.946;2.532;2023-07-13T06:20:22;3.23;;;1.47;;
19854;SDS011;10088;47.946;2.532;2023-07-13T06:22:48;10.77;;;1.73;;
19854;SDS011;10088;47.946;2.532;2023-07-13T06:25:13;9.03;;;2.13;;
19854;SDS011;10088;47.946;2.532;2023-07-13T06:27:38;5.23;;;1.50;;
19854;SDS011;10088;47.946;2.532;2023-07-13T06:30:03;5.67;;;1.27;;
19854;SDS011;10088;47.946;2.532;2023-07-13T06:32:29;7.93;;;1.80;;
19854;SDS011;10088;47.946;2.532;2023-07-13T06:34:54;5.03;;;1.40;;
19854;SDS011;10088;47.946;2.532;2023-07-13T06:37:20;5.10;;;1.20;;
19854;SDS011;10088;47.946;2.532;2023-07-13T06:39:45;4.07;;;0.97;;
19854;SDS011;10088;47.946;2.532;2023-07-13T06:42:10;5.97;;;1.20;;
19854;SDS011;10088;47.946;2.532;2023-07-13T06:44:36;3.63;;;1.17;;
19854;SDS011;10088;47.946;2.532;2023-07-13T06:47:01;3.57;;;1.10;;
19854;SDS011;10088;47.946;2.532;2023-07-13T06:49:26;4.43;;;1.17;;
19854;SDS011;10088;47.946;2.532;2023-07-13T06:51:52;3.77;;;1.00;;
19854;SDS011;10088;47.946;2.532;2023-07-13T06:54:17;2.83;;;1.20;;
19854;SDS011;10088;47.946;2.532;2023-07-13T06:56:42;4.07;;;1.03;;
19854;SDS011;10088;47.946;2.532;2023-07-13T06:59:07;4.83;;;1.13;;
19854;SDS011;10088;47.946;2.532;2023-07-13T07:01:33;4.80;;;1.10;;
19854;SDS011;10088;47.946;2.532;2023-07-13T07:03:58;4.23;;;1.30;;
19854;SDS011;10088;47.946;2.532;2023-07-13T07:06:23;7.10;;;1.60;;
19854;SDS011;10088;47.946;2.532;2023-07-13T07:08:49;5.00;;;1.13;;
19854;SDS011;10088;47.946;2.532;2023-07-13T07:11:17;4.60;;;1.10;;
19854;SDS011;10088;47.946;2.532;2023-07-13T07:13:42;5.60;;;1.87;;
19854;SDS011;10088;47.946;2.532;2023-07-13T07:16:08;4.03;;;1.17;;
19854;SDS011;10088;47.946;2.532;2023-07-13T07:18:33;7.47;;;1.50;;
19854;SDS011;10088;47.946;2.532;2023-07-13T07:20:59;3.67;;;1.10;;
19854;SDS011;10088;47.946;2.532;2023-07-13T07:23:24;9.93;;;1.07;;
19854;SDS011;10088;47.946;2.532;2023-07-13T07:25:49;3.97;;;1.60;;
19854;SDS011;10088;47.946;2.532;2023-07-13T07:28:16;3.03;;;1.07;;
19854;SDS011;10088;47.946;2.532;2023-07-13T07:30:45;5.47;;;1.40;;
19854;SDS011;10088;47.946;2.532;2023-07-13T07:33:10;3.53;;;1.10;;
19854;SDS011;10088;47.946;2.532;2023-07-13T07:35:36;2.73;;;1.03;;
19854;SDS011;10088;47.946;2.532;2023-07-13T07:38:01;4.07;;;0.93;;
19854;SDS011;10088;47.946;2.532;2023-07-13T07:40:27;5.07;;;1.20;;
19854;SDS011;10088;47.946;2.532;2023-07-13T07:42:52;3.97;;;1.00;;
19854;SDS011;10088;47.946;2.532;2023-07-13T07:45:18;4.40;;;1.13;;
19854;SDS011;10088;47.946;2.532;2023-07-13T07:47:43;4.90;;;1.17;;
19854;SDS011;10088;47.946;2.532;2023-07-13T07:50:09;4.93;;;0.93;;
19854;SDS011;10088;47.946;2.532;2023-07-13T07:52:34;3.40;;;1.07;;
19854;SDS011;10088;47.946;2.532;2023-07-13T07:54:59;3.03;;;0.90;;
19854;SDS011;10088;47.946;2.532;2023-07-13T07:57:25;3.97;;;1.30;;
19854;SDS011;10088;47.946;2.532;2023-07-13T07:59:50;3.23;;;1.13;;
19854;SDS011;10088;47.946;2.532;2023-07-13T08:02:16;1.80;;;0.80;;
19854;SDS011;10088;47.946;2.532;2023-07-13T08:04:41;3.50;;;1.00;;
19854;SDS011;10088;47.946;2.532;2023-07-13T08:07:07;3.30;;;1.10;;
19854;SDS011;10088;47.946;2.532;2023-07-13T08:09:32;3.40;;;1.27;;
19854;SDS011;10088;47.946;2.532;2023-07-13T08:11:58;4.03;;;1.20;;
19854;SDS011;10088;47.946;2.532;2023-07-13T08:14:23;3.67;;;1.20;;
19854;SDS011;10088;47.946;2.532;2023-07-13T08:16:48;4.65;;;1.25;;
19854;SDS011;10088;47.946;2.532;2023-07-13T08:19:14;3.83;;;1.27;;
19854;SDS011;10088;47.946;2.532;2023-07-13T08:21:39;3.92;;;1.05;;
19854;SDS011;10088;47.946;2.532;2023-07-13T08:24:04;3.55;;;1.00;;
19854;SDS011;10088;47.946;2.532;2023-07-13T08:26:30;5.85;;;1.17;;
19854;SDS011;10088;47.946;2.532;2023-07-13T08:28:55;4.28;;;1.00;;
19854;SDS011;10088;47.946;2.532;2023-07-13T08:31:20;3.80;;;1.30;;
19854;SDS011;10088;47.946;2.532;2023-07-13T08:33:46;2.47;;;1.00;;
19854;SDS011;10088;47.946;2.532;2023-07-13T08:36:11;5.13;;;1.27;;
19854;SDS011;10088;47.946;2.532;2023-07-13T08:38:36;4.63;;;1.30;;
19854;SDS011;10088;47.946;2.532;2023-07-13T08:41:03;3.65;;;1.00;;
19854;SDS011;10088;47.946;2.532;2023-07-13T08:43:35;4.13;;;1.10;;
19854;SDS011;10088;47.946;2.532;2023-07-13T08:46:03;3.20;;;0.93;;
19854;SDS011;10088;47.946;2.532;2023-07-13T08:51:00;3.97;;;0.90;;
19854;SDS011;10088;47.946;2.532;2023-07-13T08:53:34;3.40;;;1.10;;
19854;SDS011;10088;47.946;2.532;2023-07-13T08:56:01;3.27;;;1.13;;
19854;SDS011;10088;47.946;2.532;2023-07-13T08:58:27;3.33;;;1.15;;
19854;SDS011;10088;47.946;2.532;2023-07-13T09:03:46;2.03;;;1.00;;
19854;SDS011;10088;47.946;2.532;2023-07-13T09:06:15;5.03;;;1.10;;
19854;SDS011;10088;47.946;2.532;2023-07-13T09:16:25;2.63;;;1.10;;
19854;SDS011;10088;47.946;2.532;2023-07-13T09:18:51;2.30;;;1.07;;
19854;SDS011;10088;47.946;2.532;2023-07-13T09:21:20;3.35;;;0.95;;
19854;SDS011;10088;47.946;2.532;2023-07-13T09:23:47;4.27;;;0.93;;
19854;SDS011;10088;47.946;2.532;2023-07-13T09:26:15;3.50;;;1.30;;
19854;SDS011;10088;47.946;2.532;2023-07-13T09:28:44;2.93;;;1.10;;
19854;SDS011;10088;47.946;2.532;2023-07-13T09:33:37;2.73;;;1.00;;
19854;SDS011;10088;47.946;2.532;2023-07-13T09:36:05;2.20;;;0.80;;
19854;SDS011;10088;47.946;2.532;2023-07-13T09:38:42;2.10;;;0.80;;
19854;SDS011;10088;47.946;2.532;2023-07-13T09:41:14;4.77;;;1.23;;
19854;SDS011;10088;47.946;2.532;2023-07-13T09:44:00;2.70;;;0.97;;
19854;SDS011;10088;47.946;2.532;2023-07-13T09:46:25;3.20;;;0.90;;
19854;SDS011;10088;47.946;2.532;2023-07-13T09:48:50;5.00;;;1.10;;
19854;SDS011;10088;47.946;2.532;2023-07-13T09:51:15;1.90;;;1.00;;
19854;SDS011;10088;47.946;2.532;2023-07-13T09:53:42;3.33;;;0.93;;
19854;SDS011;10088;47.946;2.532;2023-07-13T09:56:18;7.03;;;1.13;;
19854;SDS011;10088;47.946;2.532;2023-07-13T10:01:45;2.63;;;1.03;;
19854;SDS011;10088;47.946;2.532;2023-07-13T10:04:33;2.37;;;1.00;;
19854;SDS011;10088;47.946;2.532;2023-07-13T10:07:09;2.87;;;0.77;;
19854;SDS011;10088;47.946;2.532;2023-07-13T10:09:59;4.60;;;1.03;;
19854;SDS011;10088;47.946;2.532;2023-07-13T10:12:44;3.37;;;0.90;;
19854;SDS011;10088;47.946;2.532;2023-07-13T10:15:34;3.10;;;1.10;;
19854;SDS011;10088;47.946;2.532;2023-07-13T10:18:13;2.20;;;0.70;;
19854;SDS011;10088;47.946;2.532;2023-07-13T10:20:58;2.90;;;1.03;;
19854;SDS011;10088;47.946;2.532;2023-07-13T10:23:47;3.90;;;1.37;;
19854;SDS011;10088;47.946;2.532;2023-07-13T10:26:35;5.37;;;0.93;;
19854;SDS011;10088;47.946;2.532;2023-07-13T10:29:32;3.10;;;0.83;;
19854;SDS011;10088;47.946;2.532;2023-07-13T10:32:13;3.13;;;0.93;;
19854;SDS011;10088;47.946;2.532;2023-07-13T10:34:51;3.10;;;0.70;;
19854;SDS011;10088;47.946;2.532;2023-07-13T10:37:47;3.20;;;0.90;;
19854;SDS011;10088;47.946;2.532;2023-07-13T10:40:28;2.17;;;0.90;;
19854;SDS011;10088;47.946;2.532;2023-07-13T10:43:25;4.87;;;1.20;;
19854;SDS011;10088;47.946;2.532;2023-07-13T10:46:02;3.63;;;1.00;;
19854;SDS011;10088;47.946;2.532;2023-07-13T10:48:38;5.97;;;1.20;;
19854;SDS011;10088;47.946;2.532;2023-07-13T10:51:05;5.60;;;1.17;;
19854;SDS011;10088;47.946;2.532;2023-07-13T10:53:37;3.70;;;0.90;;
19854;SDS011;10088;47.946;2.532;2023-07-13T11:01:46;3.60;;;1.03;;
19854;SDS011;10088;47.946;2.532;2023-07-13T11:04:27;2.80;;;0.90;;
19854;SDS011;10088;47.946;2.532;2023-07-13T11:07:21;4.30;;;1.10;;
19854;SDS011;10088;47.946;2.532;2023-07-13T11:09:55;3.53;;;1.10;;
19854;SDS011;10088;47.946;2.532;2023-07-13T11:15:42;4.40;;;1.30;;
19854;SDS011;10088;47.946;2.532;2023-07-13T11:18:30;3.10;;;1.27;;
19854;SDS011;10088;47.946;2.532;2023-07-13T11:21:18;3.90;;;1.33;;
19854;SDS011;10088;47.946;2.532;2023-07-13T11:23:44;2.93;;;1.00;;
19854;SDS011;10088;47.946;2.532;2023-07-13T11:31:42;4.40;;;1.37;;
19854;SDS011;10088;47.946;2.532;2023-07-13T11:34:12;2.23;;;0.90;;
19854;SDS011;10088;47.946;2.532;2023-07-13T11:36:38;2.43;;;0.93;;
19854;SDS011;10088;47.946;2.532;2023-07-13T11:41:51;2.53;;;1.00;;
19854;SDS011;10088;47.946;2.532;2023-07-13T11:44:20;2.60;;;0.87;;
19854;SDS011;10088;47.946;2.532;2023-07-13T11:46:50;3.67;;;1.13;;
19854;SDS011;10088;47.946;2.532;2023-07-13T11:49:16;3.77;;;0.70;;
19854;SDS011;10088;47.946;2.532;2023-07-13T11:51:43;5.37;;;0.87;;
19854;SDS011;10088;47.946;2.532;2023-07-13T11:54:26;3.83;;;1.10;;
19854;SDS011;10088;47.946;2.532;2023-07-13T11:56:52;5.17;;;1.37;;
19854;SDS011;10088;47.946;2.532;2023-07-13T11:59:18;3.80;;;0.90;;
19854;SDS011;10088;47.946;2.532;2023-07-13T12:01:44;3.03;;;1.03;;
19854;SDS011;10088;47.946;2.532;2023-07-13T12:04:19;3.33;;;0.80;;
19854;SDS011;10088;47.946;2.532;2023-07-13T12:06:46;3.37;;;1.00;;
19854;SDS011;10088;47.946;2.532;2023-07-13T12:09:12;5.57;;;0.80;;
19854;SDS011;10088;47.946;2.532;2023-07-13T12:11:40;5.60;;;1.30;;
19854;SDS011;10088;47.946;2.532;2023-07-13T12:14:06;3.80;;;1.07;;
19854;SDS011;10088;47.946;2.532;2023-07-13T12:16:36;12.27;;;1.20;;
19854;SDS011;10088;47.946;2.532;2023-07-13T12:19:02;3.03;;;0.90;;
19854;SDS011;10088;47.946;2.532;2023-07-13T12:21:32;6.23;;;0.93;;
19854;SDS011;10088;47.946;2.532;2023-07-13T12:23:57;2.43;;;0.80;;
19854;SDS011;10088;47.946;2.532;2023-07-13T12:26:23;2.50;;;1.00;;
19854;SDS011;10088;47.946;2.532;2023-07-13T12:28:49;4.20;;;1.27;;
19854;SDS011;10088;47.946;2.532;2023-07-13T12:36:23;1.93;;;0.93;;
19854;SDS011;10088;47.946;2.532;2023-07-13T12:38:48;5.17;;;1.17;;
19854;SDS011;10088;47.946;2.532;2023-07-13T12:41:14;2.67;;;0.90;;
19854;SDS011;10088;47.946;2.532;2023-07-13T12:43:39;4.03;;;0.90;;
19854;SDS011;10088;47.946;2.532;2023-07-13T12:46:14;2.70;;;0.83;;
19854;SDS011;10088;47.946;2.532;2023-07-13T12:48:41;3.83;;;1.10;;
19854;SDS011;10088;47.946;2.532;2023-07-13T12:51:08;2.40;;;0.97;;
19854;SDS011;10088;47.946;2.532;2023-07-13T12:53:35;2.23;;;0.80;;
19854;SDS011;10088;47.946;2.532;2023-07-13T12:56:04;3.73;;;1.07;;
19854;SDS011;10088;47.946;2.532;2023-07-13T12:58:32;2.20;;;1.10;;
19854;SDS011;10088;47.946;2.532;2023-07-13T13:00:58;3.40;;;0.77;;
19854;SDS011;10088;47.946;2.532;2023-07-13T13:03:26;2.90;;;1.00;;
19854;SDS011;10088;47.946;2.532;2023-07-13T13:05:57;3.23;;;1.00;;
19854;SDS011;10088;47.946;2.532;2023-07-13T13:08:23;3.20;;;1.00;;
19854;SDS011;10088;47.946;2.532;2023-07-13T13:10:48;1.80;;;0.80;;
19854;SDS011;10088;47.946;2.532;2023-07-13T13:13:13;3.77;;;1.23;;
19854;SDS011;10088;47.946;2.532;2023-07-13T13:15:39;5.63;;;1.00;;
19854;SDS011;10088;47.946;2.532;2023-07-13T13:18:09;3.27;;;1.20;;
19854;SDS011;10088;47.946;2.532;2023-07-13T13:20:39;2.70;;;0.90;;
19854;SDS011;10088;47.946;2.532;2023-07-13T13:23:07;4.43;;;1.20;;
19854;SDS011;10088;47.946;2.532;2023-07-13T13:25:33;2.27;;;0.80;;
19854;SDS011;10088;47.946;2.532;2023-07-13T13:27:59;4.10;;;1.17;;
19854;SDS011;10088;47.946;2.532;2023-07-13T13:30:24;2.73;;;0.80;;
19854;SDS011;10088;47.946;2.532;2023-07-13T13:32:50;3.27;;;1.10;;
19854;SDS011;10088;47.946;2.532;2023-07-13T13:35:19;3.93;;;1.03;;
19854;SDS011;10088;47.946;2.532;2023-07-13T13:37:45;3.03;;;0.90;;
19854;SDS011;10088;47.946;2.532;2023-07-13T13:40:14;6.30;;;1.10;;
19854;SDS011;10088;47.946;2.532;2023-07-13T13:42:40;3.33;;;0.70;;
19854;SDS011;10088;47.946;2.532;2023-07-13T13:45:07;3.80;;;0.80;;
19854;SDS011;10088;47.946;2.532;2023-07-13T13:47:33;4.40;;;0.87;;
19854;SDS011;10088;47.946;2.532;2023-07-13T13:49:58;2.20;;;0.70;;
19854;SDS011;10088;47.946;2.532;2023-07-13T13:52:25;3.53;;;0.77;;
19854;SDS011;10088;47.946;2.532;2023-07-13T13:54:50;3.40;;;1.07;;
19854;SDS011;10088;47.946;2.532;2023-07-13T13:57:20;3.23;;;0.80;;
19854;SDS011;10088;47.946;2.532;2023-07-13T13:59:46;2.30;;;0.70;;
19854;SDS011;10088;47.946;2.532;2023-07-13T14:02:19;3.20;;;0.70;;
19854;SDS011;10088;47.946;2.532;2023-07-13T14:04:55;2.23;;;0.90;;
19854;SDS011;10088;47.946;2.532;2023-07-13T14:07:21;2.00;;;0.70;;
19854;SDS011;10088;47.946;2.532;2023-07-13T14:09:46;3.33;;;0.87;;
19854;SDS011;10088;47.946;2.532;2023-07-13T14:12:11;5.67;;;1.00;;
19854;SDS011;10088;47.946;2.532;2023-07-13T14:14:37;4.07;;;1.00;;
19854;SDS011;10088;47.946;2.532;2023-07-13T14:17:02;2.00;;;0.80;;
19854;SDS011;10088;47.946;2.532;2023-07-13T14:19:29;1.63;;;0.77;;
19854;SDS011;10088;47.946;2.532;2023-07-13T14:21:54;1.93;;;0.70;;
19854;SDS011;10088;47.946;2.532;2023-07-13T14:24:19;3.20;;;1.10;;
19854;SDS011;10088;47.946;2.532;2023-07-13T14:26:45;3.70;;;0.80;;
19854;SDS011;10088;47.946;2.532;2023-07-13T14:29:15;2.40;;;0.83;;
19854;SDS011;10088;47.946;2.532;2023-07-13T14:31:41;1.27;;;0.80;;
19854;SDS011;10088;47.946;2.532;2023-07-13T14:34:07;1.58;;;0.75;;
19854;SDS011;10088;47.946;2.532;2023-07-13T14:36:43;3.10;;;0.90;;
19854;SDS011;10088;47.946;2.532;2023-07-13T14:39:17;3.37;;;0.87;;
19854;SDS011;10088;47.946;2.532;2023-07-13T14:41:43;2.00;;;1.00;;
19854;SDS011;10088;47.946;2.532;2023-07-13T14:44:15;4.70;;;0.87;;
19854;SDS011;10088;47.946;2.532;2023-07-13T14:46:40;4.13;;;0.97;;
19854;SDS011;10088;47.946;2.532;2023-07-13T14:49:10;2.10;;;0.70;;
19854;SDS011;10088;47.946;2.532;2023-07-13T14:51:38;1.40;;;0.80;;
19854;SDS011;10088;47.946;2.532;2023-07-13T14:54:04;2.80;;;1.07;;
19854;SDS011;10088;47.946;2.532;2023-07-13T14:56:30;2.90;;;0.83;;
19854;SDS011;10088;47.946;2.532;2023-07-13T14:58:55;2.20;;;0.80;;
19854;SDS011;10088;47.946;2.532;2023-07-13T15:01:20;2.80;;;0.80;;
19854;SDS011;10088;47.946;2.532;2023-07-13T15:03:48;2.87;;;0.80;;
19854;SDS011;10088;47.946;2.532;2023-07-13T15:06:14;4.27;;;0.97;;
19854;SDS011;10088;47.946;2.532;2023-07-13T15:08:39;2.00;;;0.90;;
19854;SDS011;10088;47.946;2.532;2023-07-13T15:11:08;2.00;;;0.97;;
19854;SDS011;10088;47.946;2.532;2023-07-13T15:13:33;3.63;;;0.93;;
19854;SDS011;10088;47.946;2.532;2023-07-13T15:16:00;1.77;;;0.70;;
19854;SDS011;10088;47.946;2.532;2023-07-13T15:18:25;1.73;;;0.70;;
19854;SDS011;10088;47.946;2.532;2023-07-13T15:20:52;8.00;;;1.17;;
19854;SDS011;10088;47.946;2.532;2023-07-13T15:23:21;4.00;;;0.77;;
19854;SDS011;10088;47.946;2.532;2023-07-13T15:25:47;1.97;;;0.73;;
19854;SDS011;10088;47.946;2.532;2023-07-13T15:28:13;1.73;;;0.60;;
19854;SDS011;10088;47.946;2.532;2023-07-13T15:30:40;1.70;;;0.70;;
19854;SDS011;10088;47.946;2.532;2023-07-13T15:33:48;5.17;;;0.80;;